Springfield Branson National Airport
KSGF : now visible

Airfield :











YOU CAN JOIN US ON...

 
LOGIN :

Register | Disclaimer

   EN    FR    IT 

 









Legend :    VFR   Marginal VFR   IFR   Intensive IFR   Very Intensive IFR
Visi :
Ceiling :
>= 8 km
>= 3000ft
5 to 8 km
1000 to 3000 ft
1500m to 5 km
500 to 1000 ft
800 to 1500m
200 to 500 ft
< 800m
< 200 ft
Symbols :   Thunderstorms  Fog  Heavy snow  Heavy precipitations  Wind > 20 kt






- Airport Elevation : 1268 ft
- IATA code : SGF


KSGF - Springfield Branson National

CURRENT METAR :
  • 300752Z 13007KT 10SM CLR 10/04 A3020 RMK AO2 SLP223 T01000039

EXPIRED METARs :
  • 300652Z 12007KT 10SM CLR 11/04 A3021 RMK AO2 SLP227 T01060044
  • 300552Z 11007KT 10SM CLR 09/04 A3022 RMK AO2 SLP229 T00940044 10178 20094 402220067 58003

TAF KSGF
Valid from the 30 at 06:00 until the 01 at 06:00 UTC


300520Z 3006/0106 12006KT P6SM SKC
FM301900 08006KT P6SM SKC
KZKC FIR / North America



MET'MAP, your aeronautical weather chart ! - Copyright ORBIFLY December 2007 - Disclaimer

ORBIFLY MET'MAP TEAM :

Programming & Development : Alexandra Zaïnal
Original concept : Baudouin d'Aumeries
Technical & hardware support : Manuel Goepfert
Assistance : Marc-Olivier Méhu




SOURCES & CREDITS :

   NOAA       Earth
Advisory